createdAt,value
2018-07-01T00:01:09.381Z,101884.34
2018-07-01T00:03:36.300Z,101891.66
2018-07-01T00:06:03.220Z,101889.49
2018-07-01T00:08:30.129Z,101891.81
2018-07-01T00:10:57.068Z,101897.70
2018-07-01T00:13:23.983Z,101899.64
2018-07-01T00:15:50.886Z,101898.63
2018-07-01T00:18:17.779Z,101904.80
2018-07-01T00:20:44.700Z,101901.42
2018-07-01T00:23:11.601Z,101908.41
2018-07-01T00:25:38.514Z,101907.52
2018-07-01T00:28:05.419Z,101907.88
2018-07-01T00:30:32.340Z,101910.91
2018-07-01T00:32:59.281Z,101903.86
2018-07-01T00:35:26.176Z,101903.67
2018-07-01T00:37:53.125Z,101903.66
2018-07-01T00:40:20.029Z,101900.63
2018-07-01T00:42:46.933Z,101903.27
2018-07-01T00:45:13.865Z,101900.63
2018-07-01T00:47:40.789Z,101899.72
2018-07-01T00:50:07.720Z,101904.52
2018-07-01T00:52:41.604Z,101905.45
2018-07-01T00:55:08.509Z,101900.59
2018-07-01T00:57:35.414Z,101910.23
2018-07-01T01:00:02.445Z,101906.34
2018-07-01T01:02:30.562Z,101899.64
2018-07-01T01:04:58.186Z,101895.30
2018-07-01T01:07:25.136Z,101898.37
2018-07-01T01:09:53.482Z,101896.87
2018-07-01T01:12:20.431Z,101900.73
2018-07-01T01:14:48.944Z,101900.41
2018-07-01T01:17:15.892Z,101897.34
2018-07-01T01:19:42.840Z,101903.33
2018-07-01T01:22:14.381Z,101902.55
2018-07-01T01:24:41.296Z,101898.59
2018-07-01T01:27:08.260Z,101894.61
2018-07-01T01:29:35.800Z,101898.88
2018-07-01T01:32:02.796Z,101898.03
2018-07-01T01:34:29.757Z,101903.06
2018-07-01T01:36:56.732Z,101903.61
2018-07-01T01:39:26.629Z,101906.72
2018-07-01T01:42:04.189Z,101910.27
2018-07-01T01:44:37.784Z,101912.99
2018-07-01T01:47:41.388Z,101909.55
2018-07-01T01:50:13.870Z,101913.17
2018-07-01T01:52:47.472Z,101910.98
2018-07-01T01:55:21.357Z,101914.59
2018-07-01T01:57:52.111Z,101914.95
2018-07-01T02:00:27.758Z,101909.28
2018-07-01T02:02:59.519Z,101922.91
2018-07-01T02:05:33.347Z,101918.06
2018-07-01T02:08:05.499Z,101918.06
2018-07-01T02:10:32.463Z,101922.41
2018-07-01T02:12:59.391Z,101926.94
2018-07-01T02:15:31.683Z,101923.53
2018-07-01T02:17:58.636Z,101928.13
2018-07-01T02:20:28.624Z,101936.09
2018-07-01T02:22:59.273Z,101934.30
2018-07-01T02:25:28.354Z,101939.49
2018-07-01T02:27:55.287Z,101941.91
2018-07-01T02:30:22.228Z,101937.76
2018-07-01T02:32:49.125Z,101945.08
2018-07-01T02:35:16.069Z,101942.89
2018-07-01T02:37:43.075Z,101944.30
2018-07-01T02:40:10.009Z,101954.99
2018-07-01T02:42:36.931Z,101943.52
2018-07-01T02:45:05.828Z,101944.88
2018-07-01T02:47:32.753Z,101952.75
2018-07-01T02:49:59.685Z,101951.00
2018-07-01T02:52:26.589Z,101953.66
2018-07-01T02:54:53.521Z,101952.73
2018-07-01T02:57:20.469Z,101953.17
2018-07-01T02:59:47.448Z,101954.50
2018-07-01T03:02:14.604Z,101962.03
2018-07-01T03:04:41.513Z,101961.61
2018-07-01T03:07:08.494Z,101964.64
2018-07-01T03:09:35.421Z,101965.52
2018-07-01T03:12:02.340Z,101964.56
2018-07-01T03:14:29.261Z,101966.83
2018-07-01T03:16:56.164Z,101971.34
2018-07-01T03:19:23.109Z,101977.58
2018-07-01T03:21:50.024Z,101971.45
2018-07-01T03:24:16.988Z,101968.82
2018-07-01T03:26:43.901Z,101970.95
2018-07-01T03:29:10.920Z,101973.06
2018-07-01T03:31:37.812Z,101975.63
2018-07-01T03:34:04.777Z,101976.09
2018-07-01T03:36:31.692Z,101980.09
2018-07-01T03:38:58.589Z,101976.98
2018-07-01T03:41:25.477Z,101978.33
2018-07-01T03:43:52.857Z,101979.22
2018-07-01T03:46:19.758Z,101983.55
2018-07-01T03:48:46.655Z,101992.30
2018-07-01T03:51:13.559Z,101993.97
2018-07-01T03:53:40.675Z,101992.06
2018-07-01T03:56:07.588Z,102001.81
2018-07-01T03:58:34.501Z,101996.89
2018-07-01T04:01:01.396Z,102006.23
2018-07-01T04:03:28.289Z,102009.64
2018-07-01T04:05:55.165Z,102013.54
2018-07-01T04:08:22.060Z,102016.87
2018-07-01T04:10:48.948Z,102016.45
2018-07-01T04:13:15.841Z,102019.13
2018-07-01T04:15:42.752Z,102016.80
2018-07-01T04:18:09.670Z,102015.33
2018-07-01T04:20:36.560Z,102013.96
2018-07-01T04:23:03.465Z,102013.86
2018-07-01T04:25:30.432Z,102009.84
2018-07-01T04:27:57.362Z,102009.32
2018-07-01T04:30:24.253Z,102010.47
2018-07-01T04:32:51.137Z,102014.30
2018-07-01T04:35:18.033Z,102005.97
2018-07-01T04:37:44.925Z,102015.58
2018-07-01T04:40:11.836Z,102014.06
2018-07-01T04:42:38.721Z,102013.41
2018-07-01T04:45:05.622Z,102019.27
2018-07-01T04:47:32.508Z,102018.67
2018-07-01T04:49:59.401Z,102011.64
2018-07-01T04:52:26.276Z,102028.12
2018-07-01T04:54:53.176Z,102028.52
2018-07-01T04:57:20.049Z,102023.47
2018-07-01T04:59:46.955Z,102035.41
2018-07-01T05:02:13.894Z,102033.78
2018-07-01T05:04:40.773Z,102025.22
2018-07-01T05:07:07.673Z,102032.16
2018-07-01T05:09:41.380Z,102036.03
2018-07-01T05:12:08.270Z,102033.16
2018-07-01T05:14:35.196Z,102037.02
2018-07-01T05:17:02.125Z,102037.15
2018-07-01T05:19:28.992Z,102036.22
2018-07-01T05:21:55.871Z,102020.58
2018-07-01T05:24:22.757Z,102035.39
2018-07-01T05:26:49.660Z,102037.28
2018-07-01T05:29:16.543Z,102031.20
2018-07-01T05:31:43.432Z,102033.95
2018-07-01T05:34:10.341Z,102031.13
2018-07-01T05:36:37.235Z,102036.54
2018-07-01T05:39:07.111Z,102038.16
2018-07-01T05:41:34.016Z,102037.64
2018-07-01T05:44:00.916Z,102041.12
2018-07-01T05:46:27.837Z,102041.18
2018-07-01T05:48:54.774Z,102045.70
2018-07-01T05:51:21.698Z,102052.30
2018-07-01T05:53:48.599Z,102050.52
2018-07-01T05:56:15.516Z,102054.66
2018-07-01T05:58:42.396Z,102056.84
2018-07-01T06:01:09.311Z,102050.28
2018-07-01T06:03:36.217Z,102058.05
2018-07-01T06:06:03.136Z,102054.70
2018-07-01T06:08:30.033Z,102050.89
2018-07-01T06:10:56.978Z,102056.07
2018-07-01T06:13:23.905Z,102048.92
2018-07-01T06:15:50.848Z,102053.13
2018-07-01T06:18:17.821Z,102058.92
2018-07-01T06:20:44.757Z,102057.66
2018-07-01T06:23:11.737Z,102058.31
2018-07-01T06:25:38.656Z,102058.82
2018-07-01T06:28:06.303Z,102062.23
2018-07-01T06:30:33.217Z,102060.57
2018-07-01T06:33:00.129Z,102053.22
2018-07-01T06:35:27.078Z,102058.33
2018-07-01T06:37:53.981Z,102057.44
2018-07-01T06:40:20.879Z,102061.60
2018-07-01T06:42:47.753Z,102058.98
2018-07-01T06:45:14.649Z,102053.77
2018-07-01T06:47:41.609Z,102054.06
2018-07-01T06:50:08.520Z,102051.74
2018-07-01T06:52:35.421Z,102055.66
2018-07-01T06:55:02.332Z,102062.28
2018-07-01T06:57:29.205Z,102058.19
2018-07-01T06:59:56.104Z,102060.34
2018-07-01T07:02:23.022Z,102068.08
2018-07-01T07:04:49.891Z,102068.91
2018-07-01T07:07:16.777Z,102072.83
2018-07-01T07:09:43.644Z,102066.57
2018-07-01T07:12:10.536Z,102066.28
2018-07-01T07:14:37.407Z,102061.59
2018-07-01T07:17:04.491Z,102058.95
2018-07-01T07:19:31.360Z,102054.60
2018-07-01T07:21:58.236Z,102050.73
2018-07-01T07:24:25.164Z,102053.05
2018-07-01T07:26:52.009Z,102056.64
2018-07-01T07:29:18.885Z,102056.48
2018-07-01T07:31:45.765Z,102056.85
2018-07-01T07:34:12.660Z,102054.16
2018-07-01T07:36:39.547Z,102063.81
2018-07-01T07:39:07.560Z,102060.28
2018-07-01T07:41:34.485Z,102059.15
2018-07-01T07:44:01.378Z,102067.12
2018-07-01T07:46:28.264Z,102066.34
2018-07-01T07:48:55.156Z,102068.09
2018-07-01T07:51:22.057Z,102071.42
2018-07-01T07:53:48.941Z,102069.19
2018-07-01T07:56:15.848Z,102068.99
2018-07-01T07:58:42.727Z,102068.06
2018-07-01T08:01:09.649Z,102070.53
2018-07-01T08:03:36.532Z,102067.02
2018-07-01T08:06:03.455Z,102071.18
2018-07-01T08:08:30.347Z,102074.80
2018-07-01T08:10:57.251Z,102067.68
2018-07-01T08:13:24.148Z,102072.96
2018-07-01T08:15:51.040Z,102075.19
2018-07-01T08:18:17.956Z,102073.83
2018-07-01T08:20:44.833Z,102074.19
2018-07-01T08:23:11.737Z,102074.28
2018-07-01T08:25:38.619Z,102077.14
2018-07-01T08:28:05.551Z,102068.73
2018-07-01T08:30:32.443Z,102071.05
2018-07-01T08:32:59.352Z,102073.34
2018-07-01T08:35:26.260Z,102079.25
2018-07-01T08:40:25.848Z,102081.35
2018-07-01T08:42:52.734Z,102073.77
2018-07-01T08:45:19.604Z,102069.62
2018-07-01T08:47:46.472Z,102074.11
2018-07-01T08:50:13.378Z,102071.88
2018-07-01T08:52:40.292Z,102068.42
2018-07-01T08:55:07.147Z,102067.96
2018-07-01T08:57:34.059Z,102068.84
2018-07-01T09:00:00.939Z,102067.73
2018-07-01T09:02:27.812Z,102060.70
2018-07-01T09:04:54.697Z,102056.86
2018-07-01T09:07:21.571Z,102064.14
2018-07-01T09:09:50.456Z,102062.05
2018-07-01T09:12:17.809Z,102060.37
2018-07-01T09:14:45.391Z,102056.27
2018-07-01T09:17:12.409Z,102056.70
2018-07-01T09:19:39.234Z,102047.06
2018-07-01T09:22:06.134Z,102051.69
2018-07-01T09:24:33.025Z,102047.71
2018-07-01T09:26:59.928Z,102037.78
2018-07-01T09:29:26.824Z,102045.61
2018-07-01T09:31:54.711Z,102036.03
2018-07-01T09:34:22.788Z,102043.84
2018-07-01T09:36:50.128Z,102046.19
2018-07-01T09:39:17.888Z,102039.13
2018-07-01T09:41:45.041Z,102040.97
2018-07-01T09:44:11.956Z,102043.57
2018-07-01T09:46:38.848Z,102047.94
2018-07-01T09:49:06.100Z,102046.02
2018-07-01T09:51:33.076Z,102046.86
2018-07-01T09:54:00.408Z,102053.55
2018-07-01T09:56:27.539Z,102049.47
2018-07-01T09:58:54.511Z,102049.52
2018-07-01T10:01:21.452Z,102041.03
2018-07-01T10:03:48.376Z,102037.35
2018-07-01T10:06:15.301Z,102041.62
2018-07-01T10:08:42.216Z,102027.19
2018-07-01T10:11:09.139Z,102044.38
2018-07-01T10:13:36.029Z,102039.42
2018-07-01T10:16:02.977Z,102051.46
2018-07-01T10:18:29.897Z,102040.95
2018-07-01T10:20:56.825Z,102038.17
2018-07-01T10:23:23.731Z,102037.06
2018-07-01T10:25:50.630Z,102031.73
2018-07-01T10:28:17.516Z,102038.77
2018-07-01T10:30:44.427Z,102047.09
2018-07-01T10:33:11.310Z,102044.02
2018-07-01T10:35:38.208Z,102047.58
2018-07-01T10:38:05.070Z,102040.58
2018-07-01T10:40:32.000Z,102035.38
2018-07-01T10:42:58.876Z,102039.93
2018-07-01T10:45:25.801Z,102036.28
2018-07-01T10:47:53.391Z,102043.13
2018-07-01T10:50:20.293Z,102044.98
2018-07-01T10:52:47.157Z,102039.48
2018-07-01T10:55:14.053Z,102041.61
2018-07-01T10:57:40.998Z,102033.81
2018-07-01T11:00:08.202Z,102042.11
2018-07-01T11:02:35.084Z,102032.84
2018-07-01T11:05:02.061Z,102022.78
2018-07-01T11:07:28.994Z,102017.47
2018-07-01T11:09:55.983Z,102016.16
2018-07-01T11:12:22.855Z,102025.91
2018-07-01T11:14:49.736Z,102019.25
2018-07-01T11:17:16.617Z,102024.67
2018-07-01T11:19:43.516Z,102016.56
2018-07-01T11:22:10.701Z,102017.67
2018-07-01T11:24:37.624Z,102014.07
2018-07-01T11:27:04.774Z,102008.35
2018-07-01T11:29:31.420Z,102015.76
2018-07-01T11:31:58.331Z,102010.97
2018-07-01T11:34:25.255Z,102002.40
2018-07-01T11:36:52.244Z,101996.59
2018-07-01T11:39:19.414Z,101998.72
2018-07-01T11:41:46.356Z,101996.05
2018-07-01T11:44:13.260Z,101995.39
2018-07-01T11:46:40.437Z,101998.97
2018-07-01T11:49:07.316Z,101993.08
2018-07-01T11:51:34.204Z,101989.68
2018-07-01T11:54:01.168Z,101990.80
2018-07-01T11:56:28.084Z,101993.70
2018-07-01T11:58:54.972Z,101985.88
2018-07-01T12:01:21.907Z,101987.22
2018-07-01T12:03:48.971Z,101982.98
2018-07-01T12:06:15.865Z,101979.05
2018-07-01T12:08:42.761Z,101983.13
2018-07-01T12:11:09.920Z,101977.91
2018-07-01T12:13:36.808Z,101979.95
2018-07-01T12:16:03.728Z,101971.55
2018-07-01T12:18:30.644Z,101980.00
2018-07-01T12:20:57.552Z,101970.98
2018-07-01T12:23:24.491Z,101972.58
2018-07-01T12:25:51.353Z,101973.67
2018-07-01T12:28:18.236Z,101972.07
2018-07-01T12:30:45.171Z,101965.54
2018-07-01T12:33:12.073Z,101964.22
2018-07-01T12:35:38.980Z,101964.80
2018-07-01T12:38:05.896Z,101967.47
2018-07-01T12:40:32.826Z,101965.67
2018-07-01T12:42:59.708Z,101958.01
2018-07-01T12:45:26.610Z,101963.60
2018-07-01T12:47:53.520Z,101958.98
2018-07-01T12:50:20.400Z,101962.37
2018-07-01T12:52:47.292Z,101960.43
2018-07-01T12:55:14.211Z,101964.45
2018-07-01T12:57:41.101Z,101955.44
2018-07-01T13:00:08.504Z,101949.88
2018-07-01T13:02:35.408Z,101957.55
2018-07-01T13:05:02.311Z,101955.35
2018-07-01T13:07:29.232Z,101951.70
2018-07-01T13:09:56.112Z,101954.36
2018-07-01T13:12:23.014Z,101948.58
2018-07-01T13:14:49.901Z,101939.47
2018-07-01T13:17:16.796Z,101938.37
2018-07-01T13:19:43.708Z,101940.38
2018-07-01T13:22:10.621Z,101939.34
2018-07-01T13:24:37.528Z,101935.04
2018-07-01T13:27:04.497Z,101934.00
2018-07-01T13:29:31.479Z,101927.33
2018-07-01T13:31:58.356Z,101927.61
2018-07-01T13:34:25.239Z,101915.73
2018-07-01T13:36:52.156Z,101925.56
2018-07-01T13:39:19.032Z,101917.64
2018-07-01T13:41:45.925Z,101923.28
2018-07-01T13:44:12.795Z,101914.95
2018-07-01T13:46:39.696Z,101907.57
2018-07-01T13:49:06.593Z,101906.59
2018-07-01T13:51:33.465Z,101902.73
2018-07-01T13:54:00.427Z,101909.73
2018-07-01T13:56:27.408Z,101909.92
2018-07-01T13:58:54.559Z,101903.89
2018-07-01T14:01:21.449Z,101902.03
2018-07-01T14:03:48.317Z,101908.23
2018-07-01T14:06:15.183Z,101895.42
2018-07-01T14:08:42.130Z,101912.63
2018-07-01T14:11:08.928Z,101909.23
2018-07-01T14:13:35.821Z,101900.95
2018-07-01T14:16:03.480Z,101900.58
2018-07-01T14:18:30.452Z,101899.31
2018-07-01T14:20:58.033Z,101893.32
2018-07-01T14:23:24.916Z,101890.66
2018-07-01T14:25:51.809Z,101888.89
2018-07-01T14:28:18.695Z,101894.41
2018-07-01T14:30:45.645Z,101891.06
2018-07-01T14:33:12.546Z,101897.13
2018-07-01T14:35:39.423Z,101887.98
2018-07-01T14:38:06.308Z,101891.05
2018-07-01T14:40:33.196Z,101894.20
2018-07-01T14:43:00.089Z,101892.58
2018-07-01T14:45:26.960Z,101891.23
2018-07-01T14:47:53.848Z,101888.31
2018-07-01T14:50:20.756Z,101886.36
2018-07-01T14:52:47.661Z,101886.45
2018-07-01T14:55:14.848Z,101874.84
2018-07-01T14:57:41.744Z,101880.19
2018-07-01T15:00:08.648Z,101877.58
2018-07-01T15:02:35.577Z,101875.72
2018-07-01T15:05:02.481Z,101873.72
2018-07-01T15:07:29.369Z,101866.91
2018-07-01T15:09:56.265Z,101864.40
2018-07-01T15:12:23.136Z,101866.00
2018-07-01T15:14:50.005Z,101862.70
2018-07-01T15:17:16.888Z,101862.69
2018-07-01T15:19:43.775Z,101870.31
2018-07-01T15:22:10.665Z,101854.73
2018-07-01T15:24:37.552Z,101861.53
2018-07-01T15:27:04.429Z,101865.13
2018-07-01T15:29:31.317Z,101856.87
2018-07-01T15:31:58.201Z,101860.70
2018-07-01T15:34:25.118Z,101856.14
2018-07-01T15:36:52.029Z,101856.45
2018-07-01T15:39:18.961Z,101853.48
2018-07-01T15:41:45.873Z,101858.14
2018-07-01T15:44:12.766Z,101850.31
2018-07-01T15:46:39.644Z,101844.03
2018-07-01T15:49:06.565Z,101844.37
2018-07-01T15:51:33.479Z,101850.00
2018-07-01T15:54:00.476Z,101840.94
2018-07-01T15:56:27.391Z,101847.77
2018-07-01T15:58:54.293Z,101848.02
2018-07-01T16:01:21.198Z,101837.25
2018-07-01T16:03:48.083Z,101838.81
2018-07-01T16:06:14.980Z,101838.79
2018-07-01T16:08:41.900Z,101838.00
2018-07-01T16:11:08.827Z,101836.89
2018-07-01T16:13:35.728Z,101829.95
2018-07-01T16:16:02.653Z,101830.34
2018-07-01T16:18:29.557Z,101824.17
2018-07-01T16:20:56.447Z,101831.12
2018-07-01T16:23:23.346Z,101829.72
2018-07-01T16:25:55.914Z,101821.87
2018-07-01T16:28:28.592Z,101819.03
2018-07-01T16:30:55.479Z,101819.72
2018-07-01T16:33:22.381Z,101820.69
2018-07-01T16:35:49.324Z,101819.91
2018-07-01T16:38:16.211Z,101820.28
2018-07-01T16:40:43.134Z,101817.83
2018-07-01T16:43:10.009Z,101821.52
2018-07-01T16:45:36.896Z,101816.22
2018-07-01T16:48:03.792Z,101820.36
2018-07-01T16:50:30.675Z,101817.22
2018-07-01T16:52:57.568Z,101809.22
2018-07-01T16:55:24.481Z,101811.07
2018-07-01T16:57:51.359Z,101811.66
2018-07-01T17:00:19.067Z,101811.07
2018-07-01T17:02:45.960Z,101819.69
2018-07-01T17:05:12.888Z,101819.52
2018-07-01T17:07:39.777Z,101820.16
2018-07-01T17:10:06.688Z,101821.34
2018-07-01T17:12:33.612Z,101814.54
2018-07-01T17:15:00.532Z,101810.52
2018-07-01T17:17:27.420Z,101816.78
2018-07-01T17:19:54.340Z,101817.22
2018-07-01T17:22:21.405Z,101806.77
2018-07-01T17:24:48.163Z,101815.71
2018-07-01T17:27:15.050Z,101809.56
2018-07-01T17:29:41.944Z,101819.13
2018-07-01T17:32:14.564Z,101819.16
2018-07-01T17:34:42.393Z,101815.77
2018-07-01T17:37:09.281Z,101818.37
2018-07-01T17:39:36.164Z,101822.11
2018-07-01T17:42:03.098Z,101822.48
2018-07-01T17:44:30.049Z,101827.08
2018-07-01T17:46:56.952Z,101826.14
2018-07-01T17:49:23.877Z,101825.17
2018-07-01T17:51:50.789Z,101830.31
2018-07-01T17:54:17.676Z,101827.87
2018-07-01T17:56:44.568Z,101830.89
2018-07-01T17:59:11.473Z,101824.25
2018-07-01T18:01:38.372Z,101828.70
2018-07-01T18:04:05.292Z,101827.42
2018-07-01T18:06:32.201Z,101820.64
2018-07-01T18:08:59.078Z,101823.64
2018-07-01T18:11:25.973Z,101829.73
2018-07-01T18:13:52.888Z,101826.16
2018-07-01T18:16:20.246Z,101826.25
2018-07-01T18:18:47.116Z,101831.13
2018-07-01T18:21:19.898Z,101830.78
2018-07-01T18:24:02.954Z,101833.78
2018-07-01T18:26:07.856Z,101833.78
2018-07-01T18:28:45.189Z,101835.97
2018-07-01T18:31:01.680Z,101836.39
2018-07-01T18:33:28.594Z,101836.04
2018-07-01T18:35:55.520Z,101838.22
2018-07-01T18:38:22.410Z,101836.34
2018-07-01T18:40:49.639Z,101834.10
2018-07-01T18:43:16.197Z,101844.70
2018-07-01T18:45:43.088Z,101842.48
2018-07-01T18:48:10.005Z,101839.95
2018-07-01T18:50:36.912Z,101840.38
2018-07-01T18:53:03.817Z,101839.09
2018-07-01T18:55:30.741Z,101835.73
2018-07-01T18:57:57.642Z,101835.02
2018-07-01T19:00:24.559Z,101839.45
2018-07-01T19:02:51.458Z,101837.27
2018-07-01T19:05:18.394Z,101836.73
2018-07-01T19:07:45.322Z,101843.37
2018-07-01T19:10:12.224Z,101842.59
2018-07-01T19:12:39.176Z,101843.58
2018-07-01T19:15:06.089Z,101844.55
2018-07-01T19:17:32.984Z,101847.56
2018-07-01T19:20:00.117Z,101850.19
2018-07-01T19:22:29.159Z,101851.38
2018-07-01T19:24:56.057Z,101851.64
2018-07-01T19:27:22.949Z,101851.57
2018-07-01T19:29:49.871Z,101851.25
2018-07-01T19:32:16.788Z,101848.97
2018-07-01T19:34:43.685Z,101850.43
2018-07-01T19:37:10.613Z,101855.73
2018-07-01T19:39:37.492Z,101860.39
2018-07-01T19:42:04.473Z,101866.31
2018-07-01T19:44:31.348Z,101862.11
2018-07-01T19:46:58.297Z,101867.01
2018-07-01T19:49:25.169Z,101868.72
2018-07-01T19:51:52.313Z,101871.34
2018-07-01T19:54:19.191Z,101877.37
2018-07-01T19:56:46.073Z,101877.79
2018-07-01T19:59:12.940Z,101878.30
2018-07-01T20:01:39.829Z,101879.47
2018-07-01T20:04:06.719Z,101884.64
2018-07-01T20:06:33.671Z,101879.34
2018-07-01T20:09:00.520Z,101879.86
2018-07-01T20:11:27.428Z,101885.41
2018-07-01T20:13:54.336Z,101885.22
2018-07-01T20:16:21.229Z,101874.44
2018-07-01T20:18:48.106Z,101878.62
2018-07-01T20:21:15.001Z,101876.34
2018-07-01T20:23:41.856Z,101874.00
2018-07-01T20:26:08.755Z,101876.02
2018-07-01T20:28:35.651Z,101869.27
2018-07-01T20:31:02.580Z,101875.89
2018-07-01T20:33:29.460Z,101869.59
2018-07-01T20:35:56.375Z,101876.61
2018-07-01T20:38:23.243Z,101868.81
2018-07-01T20:40:50.135Z,101879.66
2018-07-01T20:43:17.020Z,101872.02
2018-07-01T20:45:43.908Z,101867.56
2018-07-01T20:48:11.284Z,101864.05
2018-07-01T20:50:38.195Z,101869.30
2018-07-01T20:53:05.092Z,101863.75
2018-07-01T20:55:31.984Z,101866.73
2018-07-01T20:57:59.288Z,101864.28
2018-07-01T21:00:26.400Z,101869.88
2018-07-01T21:02:53.607Z,101872.44
2018-07-01T21:05:20.594Z,101866.60
2018-07-01T21:07:48.050Z,101869.82
2018-07-01T21:10:16.217Z,101874.91
2018-07-01T21:12:43.213Z,101872.33
2018-07-01T21:15:10.081Z,101875.80
2018-07-01T21:17:37.006Z,101872.91
2018-07-01T21:20:04.454Z,101876.08
2018-07-01T21:22:33.693Z,101880.77
2018-07-01T21:25:00.582Z,101886.10
2018-07-01T21:27:28.542Z,101885.98
2018-07-01T21:29:55.418Z,101869.47
2018-07-01T21:32:22.366Z,101878.48
2018-07-01T21:34:49.259Z,101884.81
2018-07-01T21:37:16.646Z,101888.98
2018-07-01T21:39:43.537Z,101882.59
2018-07-01T21:42:10.465Z,101877.16
2018-07-01T21:44:37.392Z,101882.37
2018-07-01T21:47:04.577Z,101880.77
2018-07-01T21:49:31.470Z,101879.33
2018-07-01T21:51:58.397Z,101886.57
2018-07-01T21:54:25.296Z,101881.45
2018-07-01T21:56:52.308Z,101884.63
2018-07-01T21:59:19.209Z,101884.36
2018-07-01T22:01:46.117Z,101882.84
2018-07-01T22:04:13.036Z,101882.45
2018-07-01T22:07:00.859Z,101881.56
2018-07-01T22:09:28.687Z,101884.13
2018-07-01T22:12:08.051Z,101877.98
2018-07-01T22:14:46.473Z,101881.34
2018-07-01T22:17:13.397Z,101881.66
2018-07-01T22:19:40.311Z,101874.73
2018-07-01T22:22:07.297Z,101871.59
2018-07-01T22:24:35.476Z,101876.28
2018-07-01T22:27:02.449Z,101878.17
2018-07-01T22:29:29.379Z,101875.30
2018-07-01T22:31:56.387Z,101879.45
2018-07-01T22:34:23.563Z,101875.66
2018-07-01T22:36:50.814Z,101880.53
2018-07-01T22:39:20.843Z,101887.27
2018-07-01T22:41:48.487Z,101884.94
2018-07-01T22:44:15.407Z,101878.84
2018-07-01T22:46:43.309Z,101882.05
2018-07-01T22:49:10.282Z,101884.02
2018-07-01T22:51:37.155Z,101877.66
2018-07-01T22:54:04.365Z,101887.37
2018-07-01T22:56:31.813Z,101887.64
2018-07-01T22:58:58.712Z,101889.02
2018-07-01T23:01:25.625Z,101889.70
2018-07-01T23:03:52.530Z,101893.44
2018-07-01T23:06:19.432Z,101906.67
2018-07-01T23:08:46.570Z,101903.09
2018-07-01T23:11:13.489Z,101897.77
2018-07-01T23:13:40.390Z,101896.21
2018-07-01T23:16:07.276Z,101895.90
2018-07-01T23:18:34.185Z,101901.86
2018-07-01T23:21:01.084Z,101891.30
2018-07-01T23:23:27.992Z,101889.66
2018-07-01T23:25:54.892Z,101893.26
2018-07-01T23:28:21.788Z,101880.98
2018-07-01T23:30:48.727Z,101869.70
2018-07-01T23:33:15.681Z,101877.61
2018-07-01T23:35:42.632Z,101882.64
2018-07-01T23:38:09.525Z,101870.05
2018-07-01T23:40:36.448Z,101874.28
2018-07-01T23:43:03.369Z,101869.53
2018-07-01T23:45:30.288Z,101858.53
2018-07-01T23:47:57.195Z,101861.79
2018-07-01T23:50:24.115Z,101857.08
2018-07-01T23:52:51.023Z,101850.50
2018-07-01T23:55:17.940Z,101847.08
2018-07-01T23:57:44.863Z,101845.84
